createdAt,value
2019-01-13T00:03:59.445Z,18.70
2019-01-13T00:08:07.683Z,20.60
2019-01-13T00:12:15.939Z,19.23
2019-01-13T00:16:24.142Z,16.07
2019-01-13T00:20:32.389Z,32.30
2019-01-13T00:24:40.608Z,22.25
2019-01-13T00:28:48.858Z,31.60
2019-01-13T00:32:57.109Z,22.93
2019-01-13T00:37:05.356Z,22.43
2019-01-13T00:41:13.563Z,28.37
2019-01-13T00:45:21.817Z,20.43
2019-01-13T00:49:30.086Z,22.80
2019-01-13T00:53:38.325Z,19.53
2019-01-13T00:57:46.556Z,21.73
2019-01-13T01:01:54.825Z,29.40
2019-01-13T01:06:03.044Z,28.03
2019-01-13T01:10:12.616Z,20.17
2019-01-13T01:14:20.918Z,25.13
2019-01-13T01:18:29.084Z,22.30
2019-01-13T01:22:37.339Z,21.47
2019-01-13T01:26:45.558Z,21.37
2019-01-13T01:30:53.838Z,22.20
2019-01-13T01:35:02.040Z,23.90
2019-01-13T01:39:10.285Z,21.13
2019-01-13T01:43:18.538Z,32.20
2019-01-13T01:47:26.799Z,22.70
2019-01-13T01:51:35.031Z,27.00
2019-01-13T01:55:43.315Z,24.13
2019-01-13T01:59:51.597Z,28.30
2019-01-13T02:03:59.811Z,25.27
2019-01-13T02:08:08.039Z,32.93
2019-01-13T02:12:16.345Z,25.33
2019-01-13T02:16:24.606Z,30.07
2019-01-13T02:20:32.820Z,22.43
2019-01-13T02:24:41.048Z,23.23
2019-01-13T02:28:49.265Z,21.03
2019-01-13T02:32:57.500Z,22.03
2019-01-13T02:37:05.729Z,19.80
2019-01-13T02:41:13.932Z,18.83
2019-01-13T02:45:24.548Z,17.83
2019-01-13T02:49:32.820Z,19.37
2019-01-13T02:53:41.094Z,18.23
2019-01-13T02:57:49.327Z,25.20
2019-01-13T03:01:57.520Z,18.23
2019-01-13T03:06:05.725Z,14.70
2019-01-13T03:10:17.209Z,12.47
2019-01-13T03:14:25.429Z,14.67
2019-01-13T03:18:33.702Z,13.50
2019-01-13T03:22:41.930Z,15.83
2019-01-13T03:26:50.146Z,13.60
2019-01-13T03:31:10.721Z,14.33
2019-01-13T03:35:06.860Z,14.93
2019-01-13T03:39:15.101Z,13.20
2019-01-13T03:43:23.306Z,12.27
2019-01-13T03:47:31.547Z,12.82
2019-01-13T03:51:39.781Z,14.07
2019-01-13T03:55:47.985Z,12.60
2019-01-13T03:59:56.205Z,16.90
2019-01-13T04:04:04.493Z,14.10
2019-01-13T04:08:12.716Z,18.33
2019-01-13T04:12:20.710Z,17.77
2019-01-13T04:16:28.932Z,18.33
2019-01-13T04:20:37.126Z,19.90
2019-01-13T04:24:45.371Z,27.20
2019-01-13T04:28:53.595Z,19.73
2019-01-13T04:33:01.584Z,21.67
2019-01-13T04:37:09.835Z,21.33
2019-01-13T04:41:18.081Z,20.10
2019-01-13T04:45:26.279Z,24.10
2019-01-13T04:49:34.517Z,26.03
2019-01-13T04:53:42.721Z,21.70
2019-01-13T04:57:50.993Z,23.40
2019-01-13T05:01:59.222Z,20.70
2019-01-13T05:06:07.473Z,22.13
2019-01-13T05:10:17.304Z,23.03
2019-01-13T05:14:25.547Z,23.20
2019-01-13T05:18:33.740Z,25.70
2019-01-13T05:22:41.967Z,22.53
2019-01-13T05:26:50.169Z,19.87
2019-01-13T05:30:58.376Z,21.23
2019-01-13T05:35:06.622Z,17.47
2019-01-13T05:39:14.810Z,17.90
2019-01-13T05:43:23.042Z,22.93
2019-01-13T05:47:31.284Z,18.30
2019-01-13T05:51:39.464Z,20.50
2019-01-13T05:55:47.690Z,20.50
2019-01-13T05:59:55.931Z,22.07
2019-01-13T06:04:04.149Z,20.10
2019-01-13T06:08:12.366Z,22.60
2019-01-13T06:12:20.541Z,22.07
2019-01-13T06:16:28.540Z,19.03
2019-01-13T06:20:36.740Z,22.53
2019-01-13T06:24:44.956Z,18.50
2019-01-13T06:28:53.177Z,15.60
2019-01-13T06:33:01.388Z,13.70
2019-01-13T06:37:09.624Z,15.47
2019-01-13T06:41:17.846Z,15.27
2019-01-13T06:45:26.620Z,17.80
2019-01-13T06:49:34.844Z,15.90
2019-01-13T06:53:43.026Z,17.27
2019-01-13T06:57:51.264Z,16.53
2019-01-13T07:02:03.301Z,13.80
2019-01-13T07:06:07.716Z,12.37
2019-01-13T07:10:15.973Z,14.13
2019-01-13T07:14:24.200Z,14.17
2019-01-13T07:18:32.402Z,13.47
2019-01-13T07:22:40.626Z,11.67
2019-01-13T07:26:48.802Z,10.67
2019-01-13T07:30:57.013Z,11.73
2019-01-13T07:35:05.347Z,9.40
2019-01-13T07:39:13.562Z,9.00
2019-01-13T07:43:21.813Z,11.68
2019-01-13T07:47:30.057Z,11.50
2019-01-13T07:51:38.332Z,12.23
2019-01-13T07:55:46.521Z,11.40
2019-01-13T07:59:54.733Z,12.40
2019-01-13T08:04:02.953Z,11.97
2019-01-13T08:08:11.147Z,10.70
2019-01-13T08:12:20.808Z,10.47
2019-01-13T08:16:27.631Z,8.07
2019-01-13T08:20:35.828Z,8.47
2019-01-13T08:24:44.066Z,10.40
2019-01-13T08:28:52.269Z,9.57
2019-01-13T08:33:00.480Z,11.97
2019-01-13T08:37:08.716Z,14.07
2019-01-13T08:41:16.933Z,16.57
2019-01-13T08:45:25.135Z,13.30
2019-01-13T08:49:33.365Z,16.17
2019-01-13T08:53:41.555Z,16.63
2019-01-13T08:57:49.778Z,27.63
2019-01-13T09:01:58.033Z,22.20
2019-01-13T09:06:06.216Z,20.90
2019-01-13T09:10:15.497Z,26.40
2019-01-13T09:14:23.721Z,25.53
2019-01-13T09:18:31.918Z,25.13
2019-01-13T09:22:40.162Z,26.03
2019-01-13T09:26:51.147Z,32.00
2019-01-13T09:30:56.584Z,24.17
2019-01-13T09:35:05.126Z,25.03
2019-01-13T09:39:13.361Z,23.37
2019-01-13T09:43:21.589Z,23.07
2019-01-13T09:47:29.822Z,34.23
2019-01-13T09:51:38.033Z,32.23
2019-01-13T09:55:46.358Z,21.43
2019-01-13T09:59:54.597Z,21.80
2019-01-13T10:04:02.812Z,29.20
2019-01-13T10:08:11.028Z,20.80
2019-01-13T10:12:19.254Z,20.33
2019-01-13T10:16:27.484Z,21.17
2019-01-13T10:20:36.393Z,20.17
2019-01-13T10:24:43.941Z,19.13
2019-01-13T10:28:52.129Z,26.13
2019-01-13T10:33:00.467Z,25.67
2019-01-13T10:37:08.697Z,23.63
2019-01-13T10:41:16.941Z,15.17
2019-01-13T10:45:25.194Z,15.20
2019-01-13T10:49:33.454Z,20.40
2019-01-13T10:53:41.680Z,11.57
2019-01-13T10:57:49.913Z,17.87
2019-01-13T11:01:58.144Z,19.50
2019-01-13T11:06:06.386Z,14.70
2019-01-13T11:10:14.827Z,11.53
2019-01-13T11:14:22.888Z,16.27
2019-01-13T11:18:31.198Z,16.70
2019-01-13T11:22:39.389Z,13.23
2019-01-13T11:26:47.746Z,8.90
2019-01-13T11:30:56.035Z,10.63
2019-01-13T11:35:04.791Z,9.33
2019-01-13T11:39:13.001Z,13.93
2019-01-13T11:43:21.243Z,10.43
2019-01-13T11:47:29.432Z,10.37
2019-01-13T11:51:37.665Z,9.80
2019-01-13T11:55:45.986Z,8.87
2019-01-13T11:59:54.275Z,8.10
2019-01-13T12:04:02.494Z,9.03
2019-01-13T12:08:14.317Z,10.50
2019-01-13T12:12:22.540Z,10.17
2019-01-13T12:16:30.781Z,14.13
2019-01-13T12:20:38.992Z,10.17
2019-01-13T12:24:47.218Z,13.57
2019-01-13T12:28:55.421Z,9.10
2019-01-13T12:33:03.690Z,7.73
2019-01-13T12:37:11.913Z,9.70
2019-01-13T12:41:20.133Z,11.57
2019-01-13T12:45:28.495Z,9.70
2019-01-13T12:49:36.765Z,10.90
2019-01-13T12:53:44.954Z,11.90
2019-01-13T12:57:53.190Z,9.50
2019-01-13T13:02:01.393Z,8.13
2019-01-13T13:06:09.596Z,10.10
2019-01-13T13:10:25.353Z,16.97
2019-01-13T13:14:33.564Z,13.20
2019-01-13T13:18:41.778Z,9.00
2019-01-13T13:22:49.990Z,8.63
2019-01-13T13:26:58.267Z,9.10
2019-01-13T13:31:06.441Z,14.40
2019-01-13T13:35:14.658Z,7.97
2019-01-13T13:39:23.913Z,13.23
2019-01-13T13:43:31.771Z,9.50
2019-01-13T13:47:39.989Z,11.90
2019-01-13T13:51:48.212Z,10.43
2019-01-13T13:55:56.424Z,7.77
2019-01-13T14:00:07.954Z,11.27
2019-01-13T14:04:16.194Z,12.10
2019-01-13T14:08:24.390Z,12.10
2019-01-13T14:12:32.603Z,13.80
2019-01-13T14:16:40.884Z,9.73
2019-01-13T14:20:49.100Z,13.70
2019-01-13T14:24:57.310Z,20.47
2019-01-13T14:29:05.502Z,12.43
2019-01-13T14:33:13.746Z,10.80
2019-01-13T14:37:21.925Z,12.50
2019-01-13T14:41:30.113Z,9.65
2019-01-13T14:45:38.335Z,9.63
2019-01-13T14:49:46.543Z,7.40
2019-01-13T14:53:54.797Z,11.20
2019-01-13T14:58:06.549Z,8.77
2019-01-13T15:02:14.815Z,6.90
2019-01-13T15:06:23.053Z,12.50
2019-01-13T15:10:31.254Z,12.40
2019-01-13T15:14:39.581Z,9.33
2019-01-13T15:18:47.883Z,12.73
2019-01-13T15:22:56.106Z,9.03
2019-01-13T15:27:04.318Z,14.70
2019-01-13T15:31:12.550Z,12.80
2019-01-13T15:35:20.808Z,10.17
2019-01-13T15:39:29.030Z,11.97
2019-01-13T15:43:37.259Z,10.53
2019-01-13T15:47:45.531Z,10.87
2019-01-13T15:51:53.708Z,13.60
2019-01-13T15:56:01.892Z,18.87
2019-01-13T16:00:13.585Z,11.83
2019-01-13T16:04:21.766Z,14.90
2019-01-13T16:08:29.979Z,15.80
2019-01-13T16:12:38.206Z,15.37
2019-01-13T16:16:46.433Z,12.77
2019-01-13T16:20:54.731Z,14.13
2019-01-13T16:25:02.974Z,15.60
2019-01-13T16:29:11.150Z,12.97
2019-01-13T16:33:19.401Z,21.50
2019-01-13T16:37:27.624Z,11.67
2019-01-13T16:41:35.804Z,10.83
2019-01-13T16:45:44.025Z,17.63
2019-01-13T16:49:52.226Z,20.13
2019-01-13T16:54:00.487Z,16.53
2019-01-13T16:58:08.723Z,10.53
2019-01-13T17:02:16.959Z,11.40
2019-01-13T17:06:25.198Z,10.63
2019-01-13T17:10:33.378Z,5.77
2019-01-13T17:14:41.573Z,8.50
2019-01-13T17:18:49.829Z,9.33
2019-01-13T17:22:58.217Z,9.03
2019-01-13T17:27:06.453Z,13.53
2019-01-13T17:31:14.653Z,9.70
2019-01-13T17:35:22.965Z,8.97
2019-01-13T17:39:31.190Z,7.93
2019-01-13T17:43:39.486Z,11.20
2019-01-13T17:47:48.066Z,8.07
2019-01-13T17:51:56.333Z,7.27
2019-01-13T17:56:04.564Z,15.13
2019-01-13T18:00:16.189Z,9.10
2019-01-13T18:04:24.378Z,6.70
2019-01-13T18:08:32.635Z,10.80
2019-01-13T18:12:40.906Z,6.90
2019-01-13T18:16:49.111Z,9.33
2019-01-13T18:20:57.391Z,6.97
2019-01-13T18:25:05.655Z,4.20
2019-01-13T18:29:13.884Z,2.50
2019-01-13T18:33:22.058Z,3.17
2019-01-13T18:37:30.294Z,6.42
2019-01-13T18:41:38.480Z,3.17
2019-01-13T18:45:46.698Z,8.20
2019-01-13T18:49:54.900Z,11.47
2019-01-13T18:54:03.164Z,5.80
2019-01-13T18:58:11.368Z,14.77
2019-01-13T19:02:19.590Z,4.57
2019-01-13T19:06:27.822Z,14.10
2019-01-13T19:11:11.804Z,4.07
2019-01-13T19:15:20.053Z,5.93
2019-01-13T19:19:32.236Z,4.93
2019-01-13T19:23:40.425Z,9.07
2019-01-13T19:27:48.625Z,5.40
2019-01-13T19:31:56.839Z,5.77
2019-01-13T19:36:05.080Z,14.43
2019-01-13T19:40:14.564Z,9.47
2019-01-13T19:44:22.820Z,6.47
2019-01-13T19:48:31.054Z,5.73
2019-01-13T19:52:39.254Z,18.17
2019-01-13T19:56:47.490Z,4.10
2019-01-13T20:00:55.716Z,6.40
2019-01-13T20:05:04.228Z,8.43
2019-01-13T20:09:12.440Z,6.73
2019-01-13T20:13:20.665Z,7.60
2019-01-13T20:17:28.877Z,10.47
2019-01-13T20:21:37.088Z,11.47
2019-01-13T20:25:45.317Z,7.33
2019-01-13T20:29:53.553Z,11.17
2019-01-13T20:34:01.745Z,8.20
2019-01-13T20:38:09.968Z,12.13
2019-01-13T20:42:18.165Z,10.93
2019-01-13T20:46:26.405Z,9.70
2019-01-13T20:50:34.595Z,6.60
2019-01-13T20:54:42.836Z,18.67
2019-01-13T20:58:51.085Z,10.97
2019-01-13T21:02:59.312Z,14.53
2019-01-13T21:07:07.534Z,14.03
2019-01-13T21:11:15.749Z,13.30
2019-01-13T21:15:26.564Z,8.50
2019-01-13T21:19:34.769Z,8.70
2019-01-13T21:23:42.954Z,17.70
2019-01-13T21:27:51.214Z,20.20
2019-01-13T21:31:59.425Z,15.43
2019-01-13T21:36:07.634Z,13.17
2019-01-13T21:40:15.878Z,15.53
2019-01-13T21:44:24.101Z,11.67
2019-01-13T21:48:32.296Z,29.73
2019-01-13T21:52:40.504Z,21.73
2019-01-13T21:56:48.737Z,16.53
2019-01-13T22:00:56.970Z,17.50
2019-01-13T22:05:06.489Z,14.60
2019-01-13T22:09:14.731Z,17.53
2019-01-13T22:13:22.926Z,14.07
2019-01-13T22:17:31.185Z,16.37
2019-01-13T22:21:39.417Z,26.17
2019-01-13T22:25:47.671Z,20.73
2019-01-13T22:29:55.892Z,14.63
2019-01-13T22:34:04.117Z,20.00
2019-01-13T22:38:12.332Z,11.83
2019-01-13T22:42:20.553Z,9.57
2019-01-13T22:46:28.753Z,10.67
2019-01-13T22:50:36.952Z,9.67
2019-01-13T22:54:45.172Z,6.00
2019-01-13T22:58:53.367Z,9.77
2019-01-13T23:03:01.662Z,4.60
2019-01-13T23:07:09.879Z,5.73
2019-01-13T23:11:18.088Z,12.70
2019-01-13T23:15:26.301Z,6.03
2019-01-13T23:19:34.535Z,8.38
2019-01-13T23:23:42.749Z,6.90
2019-01-13T23:27:50.972Z,13.27
2019-01-13T23:31:59.177Z,15.53
2019-01-13T23:36:07.396Z,7.50
2019-01-13T23:40:15.633Z,7.87
2019-01-13T23:44:23.817Z,8.57
2019-01-13T23:48:32.026Z,7.17
2019-01-13T23:52:40.256Z,4.97
2019-01-13T23:56:48.443Z,5.70
